sensor_id;sensor_type;location;lat;lon;timestamp;P1;durP1;ratioP1;P2;durP2;ratioP2
79460;SDS011;68929;42.666;23.324;2023-05-07T00:00:52;11.90;;;8.85;;
79460;SDS011;68929;42.666;23.324;2023-05-07T00:03:17;18.08;;;9.88;;
79460;SDS011;68929;42.666;23.324;2023-05-07T00:05:44;16.80;;;10.10;;
79460;SDS011;68929;42.666;23.324;2023-05-07T00:08:09;9.98;;;8.88;;
79460;SDS011;68929;42.666;23.324;2023-05-07T00:10:35;13.63;;;9.38;;
79460;SDS011;68929;42.666;23.324;2023-05-07T00:13:00;11.25;;;9.13;;
79460;SDS011;68929;42.666;23.324;2023-05-07T00:15:26;17.58;;;13.18;;
79460;SDS011;68929;42.666;23.324;2023-05-07T00:17:51;11.32;;;9.63;;
79460;SDS011;68929;42.666;23.324;2023-05-07T00:20:17;10.23;;;8.02;;
79460;SDS011;68929;42.666;23.324;2023-05-07T00:22:42;10.75;;;8.93;;
79460;SDS011;68929;42.666;23.324;2023-05-07T00:25:08;12.02;;;8.50;;
79460;SDS011;68929;42.666;23.324;2023-05-07T00:27:35;10.88;;;8.00;;
79460;SDS011;68929;42.666;23.324;2023-05-07T00:30:00;14.45;;;8.45;;
79460;SDS011;68929;42.666;23.324;2023-05-07T00:32:26;9.77;;;8.73;;
79460;SDS011;68929;42.666;23.324;2023-05-07T00:34:51;8.32;;;7.53;;
79460;SDS011;68929;42.666;23.324;2023-05-07T00:37:16;7.72;;;6.88;;
79460;SDS011;68929;42.666;23.324;2023-05-07T00:39:42;9.73;;;8.70;;
79460;SDS011;68929;42.666;23.324;2023-05-07T00:42:07;12.30;;;8.80;;
79460;SDS011;68929;42.666;23.324;2023-05-07T00:44:33;9.77;;;7.22;;
79460;SDS011;68929;42.666;23.324;2023-05-07T00:46:58;10.00;;;8.25;;
79460;SDS011;68929;42.666;23.324;2023-05-07T00:49:31;10.05;;;8.13;;
79460;SDS011;68929;42.666;23.324;2023-05-07T00:52:06;12.93;;;9.20;;
79460;SDS011;68929;42.666;23.324;2023-05-07T00:54:33;11.43;;;9.27;;
79460;SDS011;68929;42.666;23.324;2023-05-07T00:56:59;13.13;;;9.00;;
79460;SDS011;68929;42.666;23.324;2023-05-07T00:59:25;9.38;;;8.48;;
79460;SDS011;68929;42.666;23.324;2023-05-07T01:01:51;11.43;;;8.20;;
79460;SDS011;68929;42.666;23.324;2023-05-07T01:04:17;11.00;;;8.68;;
79460;SDS011;68929;42.666;23.324;2023-05-07T01:06:42;10.68;;;8.60;;
79460;SDS011;68929;42.666;23.324;2023-05-07T01:09:10;11.07;;;9.48;;
79460;SDS011;68929;42.666;23.324;2023-05-07T01:11:36;10.73;;;8.13;;
79460;SDS011;68929;42.666;23.324;2023-05-07T01:14:01;12.05;;;8.88;;
79460;SDS011;68929;42.666;23.324;2023-05-07T01:16:27;9.50;;;7.93;;
79460;SDS011;68929;42.666;23.324;2023-05-07T01:18:52;11.23;;;8.93;;
79460;SDS011;68929;42.666;23.324;2023-05-07T01:21:18;12.40;;;8.63;;
79460;SDS011;68929;42.666;23.324;2023-05-07T01:23:50;11.60;;;8.38;;
79460;SDS011;68929;42.666;23.324;2023-05-07T01:26:15;10.18;;;8.50;;
79460;SDS011;68929;42.666;23.324;2023-05-07T01:28:41;12.18;;;7.75;;
79460;SDS011;68929;42.666;23.324;2023-05-07T01:31:06;9.88;;;8.13;;
79460;SDS011;68929;42.666;23.324;2023-05-07T01:33:34;10.55;;;7.97;;
79460;SDS011;68929;42.666;23.324;2023-05-07T01:36:03;10.32;;;7.40;;
79460;SDS011;68929;42.666;23.324;2023-05-07T01:38:31;8.68;;;6.78;;
79460;SDS011;68929;42.666;23.324;2023-05-07T01:40:57;8.48;;;6.88;;
79460;SDS011;68929;42.666;23.324;2023-05-07T01:43:23;6.90;;;6.22;;
79460;SDS011;68929;42.666;23.324;2023-05-07T01:45:49;8.55;;;6.22;;
79460;SDS011;68929;42.666;23.324;2023-05-07T01:48:15;7.90;;;7.03;;
79460;SDS011;68929;42.666;23.324;2023-05-07T01:50:41;9.98;;;6.78;;
79460;SDS011;68929;42.666;23.324;2023-05-07T01:53:07;7.25;;;6.13;;
79460;SDS011;68929;42.666;23.324;2023-05-07T01:55:33;7.03;;;6.32;;
79460;SDS011;68929;42.666;23.324;2023-05-07T01:57:58;6.53;;;5.82;;
79460;SDS011;68929;42.666;23.324;2023-05-07T02:00:24;6.35;;;5.68;;
79460;SDS011;68929;42.666;23.324;2023-05-07T02:02:49;7.00;;;5.80;;
79460;SDS011;68929;42.666;23.324;2023-05-07T02:05:14;9.27;;;6.55;;
79460;SDS011;68929;42.666;23.324;2023-05-07T02:07:40;7.00;;;6.30;;
79460;SDS011;68929;42.666;23.324;2023-05-07T02:10:05;8.27;;;6.07;;
79460;SDS011;68929;42.666;23.324;2023-05-07T02:12:31;7.80;;;6.45;;
79460;SDS011;68929;42.666;23.324;2023-05-07T02:14:56;7.50;;;6.75;;
79460;SDS011;68929;42.666;23.324;2023-05-07T02:17:22;7.25;;;5.75;;
79460;SDS011;68929;42.666;23.324;2023-05-07T02:19:47;7.18;;;6.47;;
79460;SDS011;68929;42.666;23.324;2023-05-07T02:22:12;7.90;;;6.65;;
79460;SDS011;68929;42.666;23.324;2023-05-07T02:24:38;7.38;;;6.43;;
79460;SDS011;68929;42.666;23.324;2023-05-07T02:27:03;7.78;;;6.75;;
79460;SDS011;68929;42.666;23.324;2023-05-07T02:29:29;8.05;;;6.95;;
79460;SDS011;68929;42.666;23.324;2023-05-07T02:31:54;8.57;;;7.13;;
79460;SDS011;68929;42.666;23.324;2023-05-07T02:34:20;12.45;;;6.55;;
79460;SDS011;68929;42.666;23.324;2023-05-07T02:36:45;7.38;;;6.70;;
79460;SDS011;68929;42.666;23.324;2023-05-07T02:39:11;7.95;;;6.72;;
79460;SDS011;68929;42.666;23.324;2023-05-07T02:41:37;7.10;;;6.40;;
79460;SDS011;68929;42.666;23.324;2023-05-07T02:44:03;8.32;;;7.47;;
79460;SDS011;68929;42.666;23.324;2023-05-07T02:46:29;7.57;;;6.80;;
79460;SDS011;68929;42.666;23.324;2023-05-07T02:48:54;9.07;;;6.70;;
79460;SDS011;68929;42.666;23.324;2023-05-07T02:51:20;7.25;;;6.55;;
79460;SDS011;68929;42.666;23.324;2023-05-07T02:53:46;7.47;;;6.70;;
79460;SDS011;68929;42.666;23.324;2023-05-07T02:56:12;8.32;;;6.88;;
79460;SDS011;68929;42.666;23.324;2023-05-07T02:58:37;8.82;;;6.65;;
79460;SDS011;68929;42.666;23.324;2023-05-07T03:01:07;6.95;;;6.00;;
79460;SDS011;68929;42.666;23.324;2023-05-07T03:03:32;8.00;;;7.15;;
79460;SDS011;68929;42.666;23.324;2023-05-07T03:05:58;8.05;;;7.25;;
79460;SDS011;68929;42.666;23.324;2023-05-07T03:08:26;9.43;;;6.97;;
79460;SDS011;68929;42.666;23.324;2023-05-07T03:10:52;9.82;;;8.52;;
79460;SDS011;68929;42.666;23.324;2023-05-07T03:13:17;7.88;;;6.55;;
79460;SDS011;68929;42.666;23.324;2023-05-07T03:15:43;8.60;;;7.70;;
79460;SDS011;68929;42.666;23.324;2023-05-07T03:18:08;8.88;;;7.35;;
79460;SDS011;68929;42.666;23.324;2023-05-07T03:20:33;10.13;;;7.25;;
79460;SDS011;68929;42.666;23.324;2023-05-07T03:22:59;11.20;;;7.57;;
79460;SDS011;68929;42.666;23.324;2023-05-07T03:25:25;9.73;;;7.88;;
79460;SDS011;68929;42.666;23.324;2023-05-07T03:27:50;8.93;;;7.22;;
79460;SDS011;68929;42.666;23.324;2023-05-07T03:30:16;7.90;;;7.10;;
79460;SDS011;68929;42.666;23.324;2023-05-07T03:32:42;8.10;;;6.82;;
79460;SDS011;68929;42.666;23.324;2023-05-07T03:35:08;8.40;;;7.57;;
79460;SDS011;68929;42.666;23.324;2023-05-07T03:37:33;9.02;;;8.00;;
79460;SDS011;68929;42.666;23.324;2023-05-07T03:39:59;8.75;;;7.80;;
79460;SDS011;68929;42.666;23.324;2023-05-07T03:42:24;9.32;;;8.20;;
79460;SDS011;68929;42.666;23.324;2023-05-07T03:44:50;12.60;;;8.45;;
79460;SDS011;68929;42.666;23.324;2023-05-07T03:47:15;8.80;;;7.90;;
79460;SDS011;68929;42.666;23.324;2023-05-07T03:49:41;10.10;;;8.32;;
79460;SDS011;68929;42.666;23.324;2023-05-07T03:52:06;8.27;;;7.47;;
79460;SDS011;68929;42.666;23.324;2023-05-07T03:54:31;10.05;;;8.55;;
79460;SDS011;68929;42.666;23.324;2023-05-07T03:56:57;11.60;;;9.70;;
79460;SDS011;68929;42.666;23.324;2023-05-07T03:59:22;9.30;;;8.40;;
79460;SDS011;68929;42.666;23.324;2023-05-07T04:01:48;10.93;;;8.38;;
79460;SDS011;68929;42.666;23.324;2023-05-07T04:04:16;11.52;;;8.98;;
79460;SDS011;68929;42.666;23.324;2023-05-07T04:06:41;12.77;;;8.68;;
79460;SDS011;68929;42.666;23.324;2023-05-07T04:09:07;12.15;;;7.93;;
79460;SDS011;68929;42.666;23.324;2023-05-07T04:11:32;10.18;;;9.07;;
79460;SDS011;68929;42.666;23.324;2023-05-07T04:13:58;10.35;;;9.25;;
79460;SDS011;68929;42.666;23.324;2023-05-07T04:16:23;12.93;;;10.02;;
79460;SDS011;68929;42.666;23.324;2023-05-07T04:18:49;15.48;;;10.88;;
79460;SDS011;68929;42.666;23.324;2023-05-07T04:21:17;12.88;;;9.90;;
79460;SDS011;68929;42.666;23.324;2023-05-07T04:23:48;12.02;;;9.68;;
79460;SDS011;68929;42.666;23.324;2023-05-07T04:26:14;12.50;;;9.77;;
79460;SDS011;68929;42.666;23.324;2023-05-07T04:28:40;11.30;;;10.10;;
79460;SDS011;68929;42.666;23.324;2023-05-07T04:31:05;11.90;;;9.88;;
79460;SDS011;68929;42.666;23.324;2023-05-07T04:33:31;10.93;;;8.90;;
79460;SDS011;68929;42.666;23.324;2023-05-07T04:35:57;12.48;;;9.32;;
79460;SDS011;68929;42.666;23.324;2023-05-07T04:38:23;10.18;;;9.18;;
79460;SDS011;68929;42.666;23.324;2023-05-07T04:40:51;9.93;;;8.93;;
79460;SDS011;68929;42.666;23.324;2023-05-07T04:43:16;14.65;;;8.70;;
79460;SDS011;68929;42.666;23.324;2023-05-07T04:45:42;10.82;;;9.50;;
79460;SDS011;68929;42.666;23.324;2023-05-07T04:48:10;11.05;;;9.55;;
79460;SDS011;68929;42.666;23.324;2023-05-07T04:50:35;13.43;;;9.52;;
79460;SDS011;68929;42.666;23.324;2023-05-07T04:53:01;11.82;;;9.77;;
79460;SDS011;68929;42.666;23.324;2023-05-07T04:55:27;12.50;;;9.10;;
79460;SDS011;68929;42.666;23.324;2023-05-07T04:57:53;12.50;;;9.77;;
79460;SDS011;68929;42.666;23.324;2023-05-07T05:00:18;10.73;;;9.60;;
79460;SDS011;68929;42.666;23.324;2023-05-07T05:02:44;11.63;;;9.15;;
79460;SDS011;68929;42.666;23.324;2023-05-07T05:05:10;12.52;;;9.60;;
79460;SDS011;68929;42.666;23.324;2023-05-07T05:07:36;11.90;;;9.50;;
79460;SDS011;68929;42.666;23.324;2023-05-07T05:10:02;11.20;;;9.60;;
79460;SDS011;68929;42.666;23.324;2023-05-07T05:12:28;10.88;;;9.15;;
79460;SDS011;68929;42.666;23.324;2023-05-07T05:14:54;11.48;;;9.65;;
79460;SDS011;68929;42.666;23.324;2023-05-07T05:17:20;12.35;;;10.90;;
79460;SDS011;68929;42.666;23.324;2023-05-07T05:19:45;10.15;;;9.07;;
79460;SDS011;68929;42.666;23.324;2023-05-07T05:22:11;9.93;;;8.65;;
79460;SDS011;68929;42.666;23.324;2023-05-07T05:24:36;15.82;;;8.23;;
79460;SDS011;68929;42.666;23.324;2023-05-07T05:27:01;10.05;;;7.72;;
79460;SDS011;68929;42.666;23.324;2023-05-07T05:29:27;11.57;;;8.65;;
79460;SDS011;68929;42.666;23.324;2023-05-07T05:31:53;9.52;;;8.52;;
79460;SDS011;68929;42.666;23.324;2023-05-07T05:34:18;9.98;;;8.52;;
79460;SDS011;68929;42.666;23.324;2023-05-07T05:36:47;10.93;;;9.82;;
79460;SDS011;68929;42.666;23.324;2023-05-07T05:39:12;10.77;;;8.63;;
79460;SDS011;68929;42.666;23.324;2023-05-07T05:41:38;11.98;;;9.32;;
79460;SDS011;68929;42.666;23.324;2023-05-07T05:44:03;9.85;;;8.73;;
79460;SDS011;68929;42.666;23.324;2023-05-07T05:46:29;10.65;;;9.55;;
79460;SDS011;68929;42.666;23.324;2023-05-07T05:48:54;9.80;;;8.80;;
79460;SDS011;68929;42.666;23.324;2023-05-07T05:51:20;11.60;;;9.68;;
79460;SDS011;68929;42.666;23.324;2023-05-07T05:53:46;9.45;;;8.55;;
79460;SDS011;68929;42.666;23.324;2023-05-07T05:56:11;13.52;;;9.38;;
79460;SDS011;68929;42.666;23.324;2023-05-07T05:58:37;10.38;;;9.13;;
79460;SDS011;68929;42.666;23.324;2023-05-07T06:01:02;10.77;;;8.68;;
79460;SDS011;68929;42.666;23.324;2023-05-07T06:03:28;8.38;;;7.32;;
79460;SDS011;68929;42.666;23.324;2023-05-07T06:05:53;11.98;;;8.65;;
79460;SDS011;68929;42.666;23.324;2023-05-07T06:08:18;10.10;;;8.32;;
79460;SDS011;68929;42.666;23.324;2023-05-07T06:10:44;9.13;;;8.20;;
79460;SDS011;68929;42.666;23.324;2023-05-07T06:13:10;8.05;;;7.25;;
79460;SDS011;68929;42.666;23.324;2023-05-07T06:15:35;8.55;;;7.65;;
79460;SDS011;68929;42.666;23.324;2023-05-07T06:18:01;12.02;;;8.98;;
79460;SDS011;68929;42.666;23.324;2023-05-07T06:20:26;11.07;;;8.77;;
79460;SDS011;68929;42.666;23.324;2023-05-07T06:22:51;9.40;;;8.18;;
79460;SDS011;68929;42.666;23.324;2023-05-07T06:25:17;9.57;;;8.68;;
79460;SDS011;68929;42.666;23.324;2023-05-07T06:27:42;14.18;;;10.50;;
79460;SDS011;68929;42.666;23.324;2023-05-07T06:30:08;10.30;;;9.10;;
79460;SDS011;68929;42.666;23.324;2023-05-07T06:32:33;9.88;;;7.43;;
79460;SDS011;68929;42.666;23.324;2023-05-07T06:34:59;11.35;;;8.57;;
79460;SDS011;68929;42.666;23.324;2023-05-07T06:37:25;9.98;;;7.70;;
79460;SDS011;68929;42.666;23.324;2023-05-07T06:39:50;8.60;;;7.53;;
79460;SDS011;68929;42.666;23.324;2023-05-07T06:42:15;11.98;;;8.63;;
79460;SDS011;68929;42.666;23.324;2023-05-07T06:44:41;8.70;;;7.22;;
79460;SDS011;68929;42.666;23.324;2023-05-07T06:47:06;8.05;;;7.30;;
79460;SDS011;68929;42.666;23.324;2023-05-07T06:49:32;8.95;;;7.05;;
79460;SDS011;68929;42.666;23.324;2023-05-07T06:51:58;10.27;;;8.32;;
79460;SDS011;68929;42.666;23.324;2023-05-07T06:54:23;8.20;;;7.40;;
79460;SDS011;68929;42.666;23.324;2023-05-07T06:56:49;7.65;;;6.88;;
79460;SDS011;68929;42.666;23.324;2023-05-07T06:59:14;9.15;;;7.45;;
79460;SDS011;68929;42.666;23.324;2023-05-07T07:01:41;8.35;;;7.55;;
79460;SDS011;68929;42.666;23.324;2023-05-07T07:04:06;9.73;;;8.68;;
79460;SDS011;68929;42.666;23.324;2023-05-07T07:06:32;11.35;;;9.40;;
79460;SDS011;68929;42.666;23.324;2023-05-07T07:08:58;6.95;;;6.03;;
79460;SDS011;68929;42.666;23.324;2023-05-07T07:11:24;6.65;;;6.05;;
79460;SDS011;68929;42.666;23.324;2023-05-07T07:13:50;12.55;;;10.60;;
79460;SDS011;68929;42.666;23.324;2023-05-07T07:16:15;10.30;;;9.32;;
79460;SDS011;68929;42.666;23.324;2023-05-07T07:18:41;13.40;;;11.55;;
79460;SDS011;68929;42.666;23.324;2023-05-07T07:21:06;10.55;;;8.93;;
79460;SDS011;68929;42.666;23.324;2023-05-07T07:23:32;15.98;;;12.13;;
79460;SDS011;68929;42.666;23.324;2023-05-07T07:25:57;9.77;;;8.77;;
79460;SDS011;68929;42.666;23.324;2023-05-07T07:28:23;9.40;;;7.95;;
79460;SDS011;68929;42.666;23.324;2023-05-07T07:30:48;10.75;;;9.20;;
79460;SDS011;68929;42.666;23.324;2023-05-07T07:33:14;11.13;;;8.73;;
79460;SDS011;68929;42.666;23.324;2023-05-07T07:35:40;8.15;;;7.18;;
79460;SDS011;68929;42.666;23.324;2023-05-07T07:38:05;8.32;;;6.20;;
79460;SDS011;68929;42.666;23.324;2023-05-07T07:40:30;14.57;;;9.60;;
79460;SDS011;68929;42.666;23.324;2023-05-07T07:42:56;12.55;;;10.07;;
79460;SDS011;68929;42.666;23.324;2023-05-07T07:45:22;11.77;;;9.48;;
79460;SDS011;68929;42.666;23.324;2023-05-07T07:47:47;13.70;;;8.07;;
79460;SDS011;68929;42.666;23.324;2023-05-07T07:50:13;9.95;;;8.95;;
79460;SDS011;68929;42.666;23.324;2023-05-07T07:52:38;11.20;;;9.00;;
79460;SDS011;68929;42.666;23.324;2023-05-07T07:55:04;9.73;;;7.57;;
79460;SDS011;68929;42.666;23.324;2023-05-07T07:57:29;9.77;;;8.77;;
79460;SDS011;68929;42.666;23.324;2023-05-07T07:59:55;17.25;;;10.43;;
79460;SDS011;68929;42.666;23.324;2023-05-07T08:02:20;8.93;;;7.63;;
79460;SDS011;68929;42.666;23.324;2023-05-07T08:04:46;8.73;;;6.25;;
79460;SDS011;68929;42.666;23.324;2023-05-07T08:07:11;11.93;;;8.98;;
79460;SDS011;68929;42.666;23.324;2023-05-07T08:09:37;9.68;;;8.48;;
79460;SDS011;68929;42.666;23.324;2023-05-07T08:12:03;11.15;;;9.18;;
79460;SDS011;68929;42.666;23.324;2023-05-07T08:14:30;10.38;;;9.38;;
79460;SDS011;68929;42.666;23.324;2023-05-07T08:16:55;9.43;;;7.03;;
79460;SDS011;68929;42.666;23.324;2023-05-07T08:19:20;8.23;;;7.25;;
79460;SDS011;68929;42.666;23.324;2023-05-07T08:21:47;9.68;;;7.40;;
79460;SDS011;68929;42.666;23.324;2023-05-07T08:24:13;12.70;;;9.27;;
79460;SDS011;68929;42.666;23.324;2023-05-07T08:26:39;12.95;;;11.10;;
79460;SDS011;68929;42.666;23.324;2023-05-07T08:29:05;12.40;;;9.70;;
79460;SDS011;68929;42.666;23.324;2023-05-07T08:31:30;9.50;;;7.07;;
79460;SDS011;68929;42.666;23.324;2023-05-07T08:33:56;12.10;;;8.85;;
79460;SDS011;68929;42.666;23.324;2023-05-07T08:36:22;11.30;;;8.63;;
79460;SDS011;68929;42.666;23.324;2023-05-07T08:38:48;10.75;;;9.05;;
79460;SDS011;68929;42.666;23.324;2023-05-07T08:41:14;8.45;;;7.60;;
79460;SDS011;68929;42.666;23.324;2023-05-07T08:43:40;8.13;;;6.68;;
79460;SDS011;68929;42.666;23.324;2023-05-07T08:46:07;9.55;;;6.70;;
79460;SDS011;68929;42.666;23.324;2023-05-07T08:48:34;9.68;;;7.55;;
79460;SDS011;68929;42.666;23.324;2023-05-07T08:51:00;9.20;;;6.70;;
79460;SDS011;68929;42.666;23.324;2023-05-07T08:53:26;12.25;;;7.70;;
79460;SDS011;68929;42.666;23.324;2023-05-07T08:55:51;12.13;;;6.82;;
79460;SDS011;68929;42.666;23.324;2023-05-07T08:58:18;5.03;;;4.45;;
79460;SDS011;68929;42.666;23.324;2023-05-07T09:00:43;7.57;;;6.78;;
79460;SDS011;68929;42.666;23.324;2023-05-07T09:03:09;7.70;;;6.38;;
79460;SDS011;68929;42.666;23.324;2023-05-07T09:05:37;6.45;;;5.78;;
79460;SDS011;68929;42.666;23.324;2023-05-07T09:08:03;6.50;;;5.30;;
79460;SDS011;68929;42.666;23.324;2023-05-07T09:10:32;5.43;;;5.03;;
79460;SDS011;68929;42.666;23.324;2023-05-07T09:12:58;9.35;;;7.38;;
79460;SDS011;68929;42.666;23.324;2023-05-07T09:15:24;9.25;;;6.78;;
79460;SDS011;68929;42.666;23.324;2023-05-07T09:17:50;7.80;;;6.57;;
79460;SDS011;68929;42.666;23.324;2023-05-07T09:20:15;12.10;;;6.93;;
79460;SDS011;68929;42.666;23.324;2023-05-07T09:22:41;13.00;;;6.50;;
79460;SDS011;68929;42.666;23.324;2023-05-07T09:25:07;7.45;;;5.53;;
79460;SDS011;68929;42.666;23.324;2023-05-07T09:27:34;10.55;;;5.90;;
79460;SDS011;68929;42.666;23.324;2023-05-07T09:30:02;9.52;;;6.85;;
79460;SDS011;68929;42.666;23.324;2023-05-07T09:32:29;6.75;;;6.07;;
79460;SDS011;68929;42.666;23.324;2023-05-07T09:34:56;10.68;;;5.13;;
79460;SDS011;68929;42.666;23.324;2023-05-07T09:37:21;9.48;;;4.97;;
79460;SDS011;68929;42.666;23.324;2023-05-07T09:39:47;7.75;;;5.28;;
79460;SDS011;68929;42.666;23.324;2023-05-07T09:42:14;6.70;;;4.72;;
79460;SDS011;68929;42.666;23.324;2023-05-07T09:44:40;8.27;;;4.80;;
79460;SDS011;68929;42.666;23.324;2023-05-07T09:47:06;8.40;;;5.70;;
79460;SDS011;68929;42.666;23.324;2023-05-07T09:49:37;8.45;;;5.50;;
79460;SDS011;68929;42.666;23.324;2023-05-07T09:52:07;10.35;;;6.05;;
79460;SDS011;68929;42.666;23.324;2023-05-07T09:54:34;7.03;;;5.45;;
79460;SDS011;68929;42.666;23.324;2023-05-07T09:57:03;7.90;;;5.45;;
79460;SDS011;68929;42.666;23.324;2023-05-07T09:59:31;4.88;;;4.20;;
79460;SDS011;68929;42.666;23.324;2023-05-07T10:01:58;8.68;;;4.63;;
79460;SDS011;68929;42.666;23.324;2023-05-07T10:04:25;7.10;;;4.57;;
79460;SDS011;68929;42.666;23.324;2023-05-07T10:06:51;6.53;;;5.20;;
79460;SDS011;68929;42.666;23.324;2023-05-07T10:09:20;5.78;;;5.18;;
79460;SDS011;68929;42.666;23.324;2023-05-07T10:11:48;6.15;;;4.90;;
79460;SDS011;68929;42.666;23.324;2023-05-07T10:14:14;7.18;;;4.97;;
79460;SDS011;68929;42.666;23.324;2023-05-07T10:16:40;5.68;;;5.03;;
79460;SDS011;68929;42.666;23.324;2023-05-07T10:19:09;6.40;;;4.28;;
79460;SDS011;68929;42.666;23.324;2023-05-07T10:24:04;4.85;;;3.63;;
79460;SDS011;68929;42.666;23.324;2023-05-07T10:26:38;5.15;;;3.80;;
79460;SDS011;68929;42.666;23.324;2023-05-07T10:35:01;6.05;;;3.90;;
79460;SDS011;68929;42.666;23.324;2023-05-07T10:37:29;5.30;;;3.97;;
79460;SDS011;68929;42.666;23.324;2023-05-07T10:39:55;6.70;;;4.30;;
79460;SDS011;68929;42.666;23.324;2023-05-07T10:42:22;4.85;;;4.38;;
79460;SDS011;68929;42.666;23.324;2023-05-07T10:44:48;6.95;;;4.38;;
79460;SDS011;68929;42.666;23.324;2023-05-07T10:47:14;5.18;;;4.53;;
79460;SDS011;68929;42.666;23.324;2023-05-07T10:52:16;6.35;;;4.90;;
79460;SDS011;68929;42.666;23.324;2023-05-07T10:54:43;5.90;;;4.57;;
79460;SDS011;68929;42.666;23.324;2023-05-07T10:59:56;5.05;;;4.00;;
79460;SDS011;68929;42.666;23.324;2023-05-07T11:02:22;4.95;;;4.25;;
79460;SDS011;68929;42.666;23.324;2023-05-07T11:07:43;7.53;;;4.63;;
79460;SDS011;68929;42.666;23.324;2023-05-07T11:10:19;5.75;;;4.90;;
79460;SDS011;68929;42.666;23.324;2023-05-07T11:15:11;8.17;;;4.67;;
79460;SDS011;68929;42.666;23.324;2023-05-07T11:17:52;6.60;;;4.53;;
79460;SDS011;68929;42.666;23.324;2023-05-07T11:20:19;8.18;;;3.97;;
79460;SDS011;68929;42.666;23.324;2023-05-07T11:22:45;4.10;;;3.65;;
79460;SDS011;68929;42.666;23.324;2023-05-07T11:25:11;8.05;;;4.03;;
79460;SDS011;68929;42.666;23.324;2023-05-07T11:27:42;6.18;;;3.70;;
79460;SDS011;68929;42.666;23.324;2023-05-07T11:30:08;4.45;;;4.05;;
79460;SDS011;68929;42.666;23.324;2023-05-07T11:32:34;3.88;;;3.17;;
79460;SDS011;68929;42.666;23.324;2023-05-07T11:35:00;6.18;;;3.50;;
79460;SDS011;68929;42.666;23.324;2023-05-07T11:37:26;5.85;;;3.90;;
79460;SDS011;68929;42.666;23.324;2023-05-07T11:40:04;4.53;;;4.13;;
79460;SDS011;68929;42.666;23.324;2023-05-07T11:42:35;5.90;;;3.67;;
79460;SDS011;68929;42.666;23.324;2023-05-07T11:45:06;10.77;;;4.60;;
79460;SDS011;68929;42.666;23.324;2023-05-07T11:47:33;6.30;;;3.78;;
79460;SDS011;68929;42.666;23.324;2023-05-07T11:50:02;8.52;;;4.00;;
79460;SDS011;68929;42.666;23.324;2023-05-07T11:52:30;7.55;;;4.28;;
79460;SDS011;68929;42.666;23.324;2023-05-07T11:54:56;5.72;;;4.38;;
79460;SDS011;68929;42.666;23.324;2023-05-07T11:57:23;4.22;;;3.83;;
79460;SDS011;68929;42.666;23.324;2023-05-07T11:59:52;5.82;;;4.00;;
79460;SDS011;68929;42.666;23.324;2023-05-07T12:02:21;4.18;;;3.78;;
79460;SDS011;68929;42.666;23.324;2023-05-07T12:04:47;4.25;;;3.83;;
79460;SDS011;68929;42.666;23.324;2023-05-07T12:07:12;5.15;;;3.63;;
79460;SDS011;68929;42.666;23.324;2023-05-07T12:09:39;6.32;;;3.80;;
79460;SDS011;68929;42.666;23.324;2023-05-07T12:12:05;3.70;;;3.40;;
79460;SDS011;68929;42.666;23.324;2023-05-07T12:14:31;6.45;;;3.80;;
79460;SDS011;68929;42.666;23.324;2023-05-07T12:16:57;3.35;;;3.05;;
79460;SDS011;68929;42.666;23.324;2023-05-07T12:21:53;5.10;;;3.33;;
79460;SDS011;68929;42.666;23.324;2023-05-07T12:24:19;3.60;;;3.13;;
79460;SDS011;68929;42.666;23.324;2023-05-07T12:26:44;3.70;;;3.40;;
79460;SDS011;68929;42.666;23.324;2023-05-07T12:29:10;5.55;;;3.20;;
79460;SDS011;68929;42.666;23.324;2023-05-07T12:31:35;5.13;;;3.30;;
79460;SDS011;68929;42.666;23.324;2023-05-07T12:34:00;3.72;;;2.97;;
79460;SDS011;68929;42.666;23.324;2023-05-07T12:36:27;5.40;;;3.20;;
79460;SDS011;68929;42.666;23.324;2023-05-07T12:39:05;4.25;;;3.00;;
79460;SDS011;68929;42.666;23.324;2023-05-07T12:41:35;6.05;;;2.78;;
79460;SDS011;68929;42.666;23.324;2023-05-07T12:44:03;3.42;;;2.70;;
79460;SDS011;68929;42.666;23.324;2023-05-07T12:46:30;4.32;;;2.67;;
79460;SDS011;68929;42.666;23.324;2023-05-07T12:48:55;3.55;;;2.58;;
79460;SDS011;68929;42.666;23.324;2023-05-07T12:51:20;5.50;;;3.10;;
79460;SDS011;68929;42.666;23.324;2023-05-07T12:53:46;2.85;;;2.65;;
79460;SDS011;68929;42.666;23.324;2023-05-07T12:56:11;5.28;;;2.95;;
79460;SDS011;68929;42.666;23.324;2023-05-07T12:58:36;4.78;;;3.05;;
79460;SDS011;68929;42.666;23.324;2023-05-07T13:01:06;2.88;;;2.67;;
79460;SDS011;68929;42.666;23.324;2023-05-07T13:03:35;4.43;;;2.90;;
79460;SDS011;68929;42.666;23.324;2023-05-07T13:06:02;4.93;;;2.80;;
79460;SDS011;68929;42.666;23.324;2023-05-07T13:08:35;2.60;;;2.40;;
79460;SDS011;68929;42.666;23.324;2023-05-07T13:11:03;4.85;;;2.80;;
79460;SDS011;68929;42.666;23.324;2023-05-07T13:13:32;8.15;;;2.70;;
79460;SDS011;68929;42.666;23.324;2023-05-07T13:15:59;2.83;;;2.55;;
79460;SDS011;68929;42.666;23.324;2023-05-07T13:18:26;4.38;;;2.92;;
79460;SDS011;68929;42.666;23.324;2023-05-07T13:20:52;4.03;;;2.50;;
79460;SDS011;68929;42.666;23.324;2023-05-07T13:23:18;5.93;;;2.80;;
79460;SDS011;68929;42.666;23.324;2023-05-07T13:25:44;3.67;;;2.63;;
79460;SDS011;68929;42.666;23.324;2023-05-07T13:28:09;3.15;;;2.65;;
79460;SDS011;68929;42.666;23.324;2023-05-07T13:30:34;5.35;;;2.50;;
79460;SDS011;68929;42.666;23.324;2023-05-07T13:33:00;5.78;;;2.40;;
79460;SDS011;68929;42.666;23.324;2023-05-07T13:35:26;3.97;;;2.75;;
79460;SDS011;68929;42.666;23.324;2023-05-07T13:37:51;3.63;;;2.60;;
79460;SDS011;68929;42.666;23.324;2023-05-07T13:40:17;4.80;;;2.95;;
79460;SDS011;68929;42.666;23.324;2023-05-07T13:42:43;4.82;;;2.80;;
79460;SDS011;68929;42.666;23.324;2023-05-07T13:45:09;3.33;;;3.00;;
79460;SDS011;68929;42.666;23.324;2023-05-07T13:47:34;5.57;;;3.10;;
79460;SDS011;68929;42.666;23.324;2023-05-07T13:50:00;4.10;;;2.80;;
79460;SDS011;68929;42.666;23.324;2023-05-07T13:52:25;2.85;;;2.53;;
79460;SDS011;68929;42.666;23.324;2023-05-07T13:54:51;4.32;;;2.88;;
79460;SDS011;68929;42.666;23.324;2023-05-07T13:57:17;3.53;;;2.97;;
79460;SDS011;68929;42.666;23.324;2023-05-07T13:59:43;4.38;;;2.97;;
79460;SDS011;68929;42.666;23.324;2023-05-07T14:02:08;3.90;;;2.70;;
79460;SDS011;68929;42.666;23.324;2023-05-07T14:04:34;3.78;;;3.00;;
79460;SDS011;68929;42.666;23.324;2023-05-07T14:06:59;3.53;;;3.22;;
79460;SDS011;68929;42.666;23.324;2023-05-07T14:09:25;6.03;;;3.47;;
79460;SDS011;68929;42.666;23.324;2023-05-07T14:11:50;3.33;;;3.03;;
79460;SDS011;68929;42.666;23.324;2023-05-07T14:14:19;3.90;;;3.17;;
79460;SDS011;68929;42.666;23.324;2023-05-07T14:16:44;6.25;;;3.20;;
79460;SDS011;68929;42.666;23.324;2023-05-07T14:19:13;3.30;;;3.00;;
79460;SDS011;68929;42.666;23.324;2023-05-07T14:21:38;3.10;;;2.90;;
79460;SDS011;68929;42.666;23.324;2023-05-07T14:24:05;3.95;;;3.10;;
79460;SDS011;68929;42.666;23.324;2023-05-07T14:26:32;3.50;;;3.20;;
79460;SDS011;68929;42.666;23.324;2023-05-07T14:28:57;4.45;;;3.33;;
79460;SDS011;68929;42.666;23.324;2023-05-07T14:31:23;4.07;;;3.30;;
79460;SDS011;68929;42.666;23.324;2023-05-07T14:33:49;3.83;;;3.20;;
79460;SDS011;68929;42.666;23.324;2023-05-07T14:36:15;5.18;;;3.60;;
79460;SDS011;68929;42.666;23.324;2023-05-07T14:38:42;6.75;;;3.58;;
79460;SDS011;68929;42.666;23.324;2023-05-07T14:41:08;5.75;;;3.10;;
79460;SDS011;68929;42.666;23.324;2023-05-07T14:43:33;3.75;;;3.25;;